sensor_id;sensor_type;location;lat;lon;timestamp;temperature;humidity
18733;DHT22;9495;51.210;2.934;2022-11-03T00:01:48;17.70;99.90
18733;DHT22;9495;51.210;2.934;2022-11-03T00:04:18;17.20;99.90
18733;DHT22;9495;51.210;2.934;2022-11-03T00:06:49;18.00;99.90
18733;DHT22;9495;51.210;2.934;2022-11-03T00:09:18;17.90;99.90
18733;DHT22;9495;51.210;2.934;2022-11-03T00:11:48;17.40;99.90
18733;DHT22;9495;51.210;2.934;2022-11-03T00:14:18;17.70;99.90
18733;DHT22;9495;51.210;2.934;2022-11-03T00:16:48;17.40;99.90
18733;DHT22;9495;51.210;2.934;2022-11-03T00:19:16;18.20;99.90
18733;DHT22;9495;51.210;2.934;2022-11-03T00:21:45;18.70;99.90
18733;DHT22;9495;51.210;2.934;2022-11-03T00:24:13;18.20;99.90
18733;DHT22;9495;51.210;2.934;2022-11-03T00:26:41;18.40;99.90
18733;DHT22;9495;51.210;2.934;2022-11-03T00:29:11;18.30;99.90
18733;DHT22;9495;51.210;2.934;2022-11-03T00:31:40;18.20;99.90
18733;DHT22;9495;51.210;2.934;2022-11-03T00:34:11;17.90;99.90
18733;DHT22;9495;51.210;2.934;2022-11-03T00:36:40;18.20;99.90
18733;DHT22;9495;51.210;2.934;2022-11-03T00:39:09;18.30;99.90
18733;DHT22;9495;51.210;2.934;2022-11-03T00:41:37;17.70;99.90
18733;DHT22;9495;51.210;2.934;2022-11-03T00:44:06;17.90;99.90
18733;DHT22;9495;51.210;2.934;2022-11-03T00:46:37;18.10;99.90
18733;DHT22;9495;51.210;2.934;2022-11-03T00:49:05;18.00;99.90
18733;DHT22;9495;51.210;2.934;2022-11-03T00:51:35;17.80;99.90
18733;DHT22;9495;51.210;2.934;2022-11-03T00:54:04;18.10;99.90
18733;DHT22;9495;51.210;2.934;2022-11-03T00:56:35;18.30;99.90
18733;DHT22;9495;51.210;2.934;2022-11-03T00:59:04;18.10;99.90
18733;DHT22;9495;51.210;2.934;2022-11-03T01:01:34;18.00;99.90
18733;DHT22;9495;51.210;2.934;2022-11-03T01:04:11;17.70;99.90
18733;DHT22;9495;51.210;2.934;2022-11-03T01:06:59;17.70;99.90
18733;DHT22;9495;51.210;2.934;2022-11-03T01:09:28;18.20;99.90
18733;DHT22;9495;51.210;2.934;2022-11-03T01:11:58;18.10;99.90
18733;DHT22;9495;51.210;2.934;2022-11-03T01:14:28;18.30;99.90
18733;DHT22;9495;51.210;2.934;2022-11-03T01:16:57;17.90;99.90
18733;DHT22;9495;51.210;2.934;2022-11-03T01:19:25;18.00;99.90
18733;DHT22;9495;51.210;2.934;2022-11-03T01:21:54;17.90;99.90
18733;DHT22;9495;51.210;2.934;2022-11-03T01:24:23;18.40;99.90
18733;DHT22;9495;51.210;2.934;2022-11-03T01:26:52;18.20;99.90
18733;DHT22;9495;51.210;2.934;2022-11-03T01:29:20;18.10;99.90
18733;DHT22;9495;51.210;2.934;2022-11-03T01:31:49;18.40;99.90
18733;DHT22;9495;51.210;2.934;2022-11-03T01:34:18;18.40;99.90
18733;DHT22;9495;51.210;2.934;2022-11-03T01:36:47;18.20;99.90
18733;DHT22;9495;51.210;2.934;2022-11-03T01:39:17;18.10;99.90
18733;DHT22;9495;51.210;2.934;2022-11-03T01:41:48;18.10;99.90
18733;DHT22;9495;51.210;2.934;2022-11-03T01:44:30;18.10;99.90
18733;DHT22;9495;51.210;2.934;2022-11-03T01:47:08;18.50;99.90
18733;DHT22;9495;51.210;2.934;2022-11-03T01:49:43;18.00;99.90
18733;DHT22;9495;51.210;2.934;2022-11-03T01:52:16;17.80;99.90
18733;DHT22;9495;51.210;2.934;2022-11-03T01:54:48;17.40;99.90
18733;DHT22;9495;51.210;2.934;2022-11-03T01:57:21;17.80;99.90
18733;DHT22;9495;51.210;2.934;2022-11-03T01:59:51;18.00;99.90
18733;DHT22;9495;51.210;2.934;2022-11-03T02:02:21;17.80;99.90
18733;DHT22;9495;51.210;2.934;2022-11-03T02:04:49;18.00;99.90
18733;DHT22;9495;51.210;2.934;2022-11-03T02:07:23;18.50;99.90
18733;DHT22;9495;51.210;2.934;2022-11-03T02:09:51;18.40;99.90
18733;DHT22;9495;51.210;2.934;2022-11-03T02:12:22;18.20;99.90
18733;DHT22;9495;51.210;2.934;2022-11-03T02:14:53;18.50;99.90
18733;DHT22;9495;51.210;2.934;2022-11-03T02:17:23;18.00;99.90
18733;DHT22;9495;51.210;2.934;2022-11-03T02:19:56;18.00;99.90
18733;DHT22;9495;51.210;2.934;2022-11-03T02:22:32;17.70;99.90
18733;DHT22;9495;51.210;2.934;2022-11-03T02:25:10;17.60;99.90
18733;DHT22;9495;51.210;2.934;2022-11-03T02:27:42;18.00;99.90
18733;DHT22;9495;51.210;2.934;2022-11-03T02:30:11;17.60;99.90
18733;DHT22;9495;51.210;2.934;2022-11-03T02:32:46;18.10;99.90
18733;DHT22;9495;51.210;2.934;2022-11-03T02:35:20;18.20;99.90
18733;DHT22;9495;51.210;2.934;2022-11-03T02:37:53;18.30;99.90
18733;DHT22;9495;51.210;2.934;2022-11-03T02:40:26;18.20;99.90
18733;DHT22;9495;51.210;2.934;2022-11-03T02:42:58;17.90;99.90
18733;DHT22;9495;51.210;2.934;2022-11-03T02:45:27;17.50;99.90
18733;DHT22;9495;51.210;2.934;2022-11-03T02:47:58;17.40;99.90
18733;DHT22;9495;51.210;2.934;2022-11-03T02:50:27;17.80;99.90
18733;DHT22;9495;51.210;2.934;2022-11-03T02:52:56;18.10;99.90
18733;DHT22;9495;51.210;2.934;2022-11-03T02:55:32;17.60;99.90
18733;DHT22;9495;51.210;2.934;2022-11-03T02:58:06;17.60;99.90
18733;DHT22;9495;51.210;2.934;2022-11-03T03:00:43;17.70;99.90
18733;DHT22;9495;51.210;2.934;2022-11-03T03:03:16;18.20;99.90
18733;DHT22;9495;51.210;2.934;2022-11-03T03:05:47;18.10;99.90
18733;DHT22;9495;51.210;2.934;2022-11-03T03:08:18;18.00;99.90
18733;DHT22;9495;51.210;2.934;2022-11-03T03:10:48;18.30;99.90
18733;DHT22;9495;51.210;2.934;2022-11-03T03:13:20;17.80;99.90
18733;DHT22;9495;51.210;2.934;2022-11-03T03:15:58;18.00;99.90
18733;DHT22;9495;51.210;2.934;2022-11-03T03:18:36;18.10;99.90
18733;DHT22;9495;51.210;2.934;2022-11-03T03:21:11;18.70;99.90
18733;DHT22;9495;51.210;2.934;2022-11-03T03:23:45;17.90;99.90
18733;DHT22;9495;51.210;2.934;2022-11-03T03:26:21;17.80;99.90
18733;DHT22;9495;51.210;2.934;2022-11-03T03:28:54;17.70;99.90
18733;DHT22;9495;51.210;2.934;2022-11-03T03:31:25;18.30;99.90
18733;DHT22;9495;51.210;2.934;2022-11-03T03:33:56;17.70;99.90
18733;DHT22;9495;51.210;2.934;2022-11-03T03:36:43;17.90;99.90
18733;DHT22;9495;51.210;2.934;2022-11-03T03:39:14;17.90;99.90
18733;DHT22;9495;51.210;2.934;2022-11-03T03:41:45;18.00;99.90
18733;DHT22;9495;51.210;2.934;2022-11-03T03:44:15;17.90;99.90
18733;DHT22;9495;51.210;2.934;2022-11-03T03:46:48;18.30;99.90
18733;DHT22;9495;51.210;2.934;2022-11-03T03:49:18;17.80;99.90
18733;DHT22;9495;51.210;2.934;2022-11-03T03:51:47;18.20;99.90
18733;DHT22;9495;51.210;2.934;2022-11-03T03:54:16;18.20;99.90
18733;DHT22;9495;51.210;2.934;2022-11-03T03:56:49;18.10;99.90
18733;DHT22;9495;51.210;2.934;2022-11-03T03:59:20;18.00;99.90
18733;DHT22;9495;51.210;2.934;2022-11-03T04:01:48;18.40;99.90
18733;DHT22;9495;51.210;2.934;2022-11-03T04:04:17;18.30;99.90
18733;DHT22;9495;51.210;2.934;2022-11-03T04:06:45;17.90;99.90
18733;DHT22;9495;51.210;2.934;2022-11-03T04:09:14;18.30;99.90
18733;DHT22;9495;51.210;2.934;2022-11-03T04:11:42;18.70;99.90
18733;DHT22;9495;51.210;2.934;2022-11-03T04:14:29;18.90;99.90
18733;DHT22;9495;51.210;2.934;2022-11-03T04:17:18;18.50;99.90
18733;DHT22;9495;51.210;2.934;2022-11-03T04:20:19;18.60;99.90
18733;DHT22;9495;51.210;2.934;2022-11-03T04:23:05;19.00;99.90
18733;DHT22;9495;51.210;2.934;2022-11-03T04:25:33;18.70;99.90
18733;DHT22;9495;51.210;2.934;2022-11-03T04:28:07;18.90;99.90
18733;DHT22;9495;51.210;2.934;2022-11-03T04:30:37;18.60;99.90
18733;DHT22;9495;51.210;2.934;2022-11-03T04:33:12;18.60;99.90
18733;DHT22;9495;51.210;2.934;2022-11-03T04:35:42;18.60;99.90
18733;DHT22;9495;51.210;2.934;2022-11-03T04:38:20;18.70;99.90
18733;DHT22;9495;51.210;2.934;2022-11-03T04:40:53;18.30;99.90
18733;DHT22;9495;51.210;2.934;2022-11-03T04:43:29;18.60;99.90
18733;DHT22;9495;51.210;2.934;2022-11-03T04:45:59;18.40;99.90
18733;DHT22;9495;51.210;2.934;2022-11-03T04:48:28;18.50;99.90
18733;DHT22;9495;51.210;2.934;2022-11-03T04:50:58;18.50;99.90
18733;DHT22;9495;51.210;2.934;2022-11-03T04:53:30;18.60;99.90
18733;DHT22;9495;51.210;2.934;2022-11-03T04:55:59;18.90;99.90
18733;DHT22;9495;51.210;2.934;2022-11-03T04:58:34;18.60;99.90
18733;DHT22;9495;51.210;2.934;2022-11-03T05:01:09;18.60;99.90
18733;DHT22;9495;51.210;2.934;2022-11-03T05:03:43;18.70;99.90
18733;DHT22;9495;51.210;2.934;2022-11-03T05:06:14;18.90;99.90
18733;DHT22;9495;51.210;2.934;2022-11-03T05:08:47;18.70;99.90
18733;DHT22;9495;51.210;2.934;2022-11-03T05:11:20;18.80;99.90
18733;DHT22;9495;51.210;2.934;2022-11-03T05:13:51;18.90;99.90
18733;DHT22;9495;51.210;2.934;2022-11-03T05:16:21;18.80;99.90
18733;DHT22;9495;51.210;2.934;2022-11-03T05:18:50;18.90;99.90
18733;DHT22;9495;51.210;2.934;2022-11-03T05:21:21;18.70;99.90
18733;DHT22;9495;51.210;2.934;2022-11-03T05:23:53;18.60;99.90
18733;DHT22;9495;51.210;2.934;2022-11-03T05:26:25;18.30;99.90
18733;DHT22;9495;51.210;2.934;2022-11-03T05:28:57;18.30;99.90
18733;DHT22;9495;51.210;2.934;2022-11-03T05:31:30;18.40;99.90
18733;DHT22;9495;51.210;2.934;2022-11-03T05:34:01;18.50;99.90
18733;DHT22;9495;51.210;2.934;2022-11-03T05:36:30;18.70;99.90
18733;DHT22;9495;51.210;2.934;2022-11-03T05:39:12;18.40;99.90
18733;DHT22;9495;51.210;2.934;2022-11-03T05:41:44;18.60;99.90
18733;DHT22;9495;51.210;2.934;2022-11-03T05:44:24;18.90;99.90
18733;DHT22;9495;51.210;2.934;2022-11-03T05:46:54;18.70;99.90
18733;DHT22;9495;51.210;2.934;2022-11-03T05:49:22;18.50;99.90
18733;DHT22;9495;51.210;2.934;2022-11-03T05:51:50;18.50;99.90
18733;DHT22;9495;51.210;2.934;2022-11-03T05:54:21;18.40;99.90
18733;DHT22;9495;51.210;2.934;2022-11-03T05:56:50;18.40;99.90
18733;DHT22;9495;51.210;2.934;2022-11-03T05:59:21;18.20;99.90
18733;DHT22;9495;51.210;2.934;2022-11-03T06:01:52;18.70;99.90
18733;DHT22;9495;51.210;2.934;2022-11-03T06:04:25;18.30;99.90
18733;DHT22;9495;51.210;2.934;2022-11-03T06:07:00;18.40;99.90
18733;DHT22;9495;51.210;2.934;2022-11-03T06:09:31;18.40;99.90
18733;DHT22;9495;51.210;2.934;2022-11-03T06:12:01;18.70;99.90
18733;DHT22;9495;51.210;2.934;2022-11-03T06:14:33;18.30;99.90
18733;DHT22;9495;51.210;2.934;2022-11-03T06:17:04;18.00;99.90
18733;DHT22;9495;51.210;2.934;2022-11-03T06:19:37;18.40;99.90
18733;DHT22;9495;51.210;2.934;2022-11-03T06:22:14;18.20;99.90
18733;DHT22;9495;51.210;2.934;2022-11-03T06:24:43;18.10;99.90
18733;DHT22;9495;51.210;2.934;2022-11-03T06:27:13;18.60;99.90
18733;DHT22;9495;51.210;2.934;2022-11-03T06:29:48;18.50;99.90
18733;DHT22;9495;51.210;2.934;2022-11-03T06:32:17;18.30;99.90
18733;DHT22;9495;51.210;2.934;2022-11-03T06:34:49;18.20;99.90
18733;DHT22;9495;51.210;2.934;2022-11-03T06:37:21;18.50;99.90
18733;DHT22;9495;51.210;2.934;2022-11-03T06:39:52;18.30;99.90
18733;DHT22;9495;51.210;2.934;2022-11-03T06:42:25;18.70;99.90
18733;DHT22;9495;51.210;2.934;2022-11-03T06:44:59;18.40;99.90
18733;DHT22;9495;51.210;2.934;2022-11-03T06:47:28;18.80;99.90
18733;DHT22;9495;51.210;2.934;2022-11-03T06:49:59;18.60;99.90
18733;DHT22;9495;51.210;2.934;2022-11-03T06:52:31;18.70;99.90
18733;DHT22;9495;51.210;2.934;2022-11-03T06:55:14;18.40;99.90
18733;DHT22;9495;51.210;2.934;2022-11-03T06:57:46;18.30;99.90
18733;DHT22;9495;51.210;2.934;2022-11-03T07:00:19;18.50;99.90
18733;DHT22;9495;51.210;2.934;2022-11-03T07:03:09;18.70;99.90
18733;DHT22;9495;51.210;2.934;2022-11-03T07:05:39;18.60;99.90
18733;DHT22;9495;51.210;2.934;2022-11-03T07:08:18;18.70;99.90
18733;DHT22;9495;51.210;2.934;2022-11-03T07:10:49;18.10;99.90
18733;DHT22;9495;51.210;2.934;2022-11-03T07:13:20;18.30;99.90
18733;DHT22;9495;51.210;2.934;2022-11-03T07:15:50;18.70;99.90
18733;DHT22;9495;51.210;2.934;2022-11-03T07:18:22;18.10;99.90
18733;DHT22;9495;51.210;2.934;2022-11-03T07:20:53;17.90;99.90
18733;DHT22;9495;51.210;2.934;2022-11-03T07:23:24;17.90;99.90
18733;DHT22;9495;51.210;2.934;2022-11-03T07:25:57;18.10;99.90
18733;DHT22;9495;51.210;2.934;2022-11-03T07:28:30;17.90;99.90
18733;DHT22;9495;51.210;2.934;2022-11-03T07:30:59;17.90;99.90
18733;DHT22;9495;51.210;2.934;2022-11-03T07:33:30;17.70;99.90
18733;DHT22;9495;51.210;2.934;2022-11-03T07:36:00;17.40;99.90
18733;DHT22;9495;51.210;2.934;2022-11-03T07:38:47;17.60;99.90
18733;DHT22;9495;51.210;2.934;2022-11-03T07:41:19;17.60;99.90
18733;DHT22;9495;51.210;2.934;2022-11-03T07:43:52;17.70;99.90
18733;DHT22;9495;51.210;2.934;2022-11-03T07:46:21;17.90;99.90
18733;DHT22;9495;51.210;2.934;2022-11-03T07:48:53;18.40;99.90
18733;DHT22;9495;51.210;2.934;2022-11-03T07:51:26;18.40;99.90
18733;DHT22;9495;51.210;2.934;2022-11-03T07:54:00;18.50;99.90
18733;DHT22;9495;51.210;2.934;2022-11-03T07:56:33;18.80;99.90
18733;DHT22;9495;51.210;2.934;2022-11-03T07:59:10;18.70;99.90
18733;DHT22;9495;51.210;2.934;2022-11-03T08:01:42;18.50;99.90
18733;DHT22;9495;51.210;2.934;2022-11-03T08:04:12;18.60;99.90
18733;DHT22;9495;51.210;2.934;2022-11-03T08:06:45;18.30;99.90
18733;DHT22;9495;51.210;2.934;2022-11-03T08:09:14;18.50;99.90
18733;DHT22;9495;51.210;2.934;2022-11-03T08:11:42;18.60;99.90
18733;DHT22;9495;51.210;2.934;2022-11-03T08:14:11;18.60;99.90
18733;DHT22;9495;51.210;2.934;2022-11-03T08:16:39;18.80;99.90
18733;DHT22;9495;51.210;2.934;2022-11-03T08:19:08;17.90;99.90
18733;DHT22;9495;51.210;2.934;2022-11-03T08:21:36;18.70;99.90
18733;DHT22;9495;51.210;2.934;2022-11-03T08:24:06;18.20;99.90
18733;DHT22;9495;51.210;2.934;2022-11-03T08:26:34;18.20;99.90
18733;DHT22;9495;51.210;2.934;2022-11-03T08:29:02;18.10;99.90
18733;DHT22;9495;51.210;2.934;2022-11-03T08:31:31;18.60;99.90
18733;DHT22;9495;51.210;2.934;2022-11-03T08:33:59;18.60;99.90
18733;DHT22;9495;51.210;2.934;2022-11-03T08:36:27;18.90;99.90
18733;DHT22;9495;51.210;2.934;2022-11-03T08:38:56;18.80;99.90
18733;DHT22;9495;51.210;2.934;2022-11-03T08:41:25;19.10;99.90
18733;DHT22;9495;51.210;2.934;2022-11-03T08:43:53;18.70;99.90
18733;DHT22;9495;51.210;2.934;2022-11-03T08:46:22;18.80;99.90
18733;DHT22;9495;51.210;2.934;2022-11-03T08:48:50;19.10;99.90
18733;DHT22;9495;51.210;2.934;2022-11-03T08:51:19;18.80;99.90
18733;DHT22;9495;51.210;2.934;2022-11-03T08:53:48;18.80;99.90
18733;DHT22;9495;51.210;2.934;2022-11-03T08:56:20;18.60;99.90
18733;DHT22;9495;51.210;2.934;2022-11-03T08:58:50;18.50;99.90
18733;DHT22;9495;51.210;2.934;2022-11-03T09:01:18;18.40;99.90
18733;DHT22;9495;51.210;2.934;2022-11-03T09:03:46;18.60;99.90
18733;DHT22;9495;51.210;2.934;2022-11-03T09:06:15;18.60;99.90
18733;DHT22;9495;51.210;2.934;2022-11-03T09:08:43;18.90;99.90
18733;DHT22;9495;51.210;2.934;2022-11-03T09:11:32;18.90;99.90
18733;DHT22;9495;51.210;2.934;2022-11-03T09:14:02;19.30;99.90
18733;DHT22;9495;51.210;2.934;2022-11-03T09:16:30;19.00;99.90
18733;DHT22;9495;51.210;2.934;2022-11-03T09:18:58;19.20;99.90
18733;DHT22;9495;51.210;2.934;2022-11-03T09:21:27;19.10;99.90
18733;DHT22;9495;51.210;2.934;2022-11-03T09:23:55;19.20;99.90
18733;DHT22;9495;51.210;2.934;2022-11-03T09:26:26;19.20;99.90
18733;DHT22;9495;51.210;2.934;2022-11-03T09:28:54;19.30;99.90
18733;DHT22;9495;51.210;2.934;2022-11-03T09:31:24;19.60;99.90
18733;DHT22;9495;51.210;2.934;2022-11-03T09:33:55;19.30;99.90
18733;DHT22;9495;51.210;2.934;2022-11-03T09:36:23;19.40;99.90
18733;DHT22;9495;51.210;2.934;2022-11-03T09:38:51;19.30;99.90
18733;DHT22;9495;51.210;2.934;2022-11-03T09:41:20;18.80;99.90
18733;DHT22;9495;51.210;2.934;2022-11-03T09:44:01;18.90;99.90
18733;DHT22;9495;51.210;2.934;2022-11-03T09:46:32;19.10;99.90
18733;DHT22;9495;51.210;2.934;2022-11-03T09:49:02;19.00;99.90
18733;DHT22;9495;51.210;2.934;2022-11-03T09:51:31;18.70;99.90
18733;DHT22;9495;51.210;2.934;2022-11-03T09:54:03;18.90;99.90
18733;DHT22;9495;51.210;2.934;2022-11-03T09:56:35;19.20;99.90
18733;DHT22;9495;51.210;2.934;2022-11-03T09:59:12;19.20;99.90
18733;DHT22;9495;51.210;2.934;2022-11-03T10:01:44;19.40;99.90
18733;DHT22;9495;51.210;2.934;2022-11-03T10:04:15;19.10;99.90
18733;DHT22;9495;51.210;2.934;2022-11-03T10:06:44;19.20;99.90
18733;DHT22;9495;51.210;2.934;2022-11-03T10:09:15;19.40;99.90
18733;DHT22;9495;51.210;2.934;2022-11-03T10:11:45;19.30;99.90
18733;DHT22;9495;51.210;2.934;2022-11-03T10:14:15;19.30;99.90
18733;DHT22;9495;51.210;2.934;2022-11-03T10:16:50;19.40;99.90
18733;DHT22;9495;51.210;2.934;2022-11-03T10:19:19;19.50;99.90
18733;DHT22;9495;51.210;2.934;2022-11-03T10:21:48;19.20;99.90
18733;DHT22;9495;51.210;2.934;2022-11-03T10:24:17;19.50;99.90
18733;DHT22;9495;51.210;2.934;2022-11-03T10:26:47;19.60;99.90
18733;DHT22;9495;51.210;2.934;2022-11-03T10:29:20;19.50;99.90
18733;DHT22;9495;51.210;2.934;2022-11-03T10:31:51;19.60;99.90
18733;DHT22;9495;51.210;2.934;2022-11-03T10:34:31;19.40;99.90
18733;DHT22;9495;51.210;2.934;2022-11-03T10:37:12;19.20;99.90
18733;DHT22;9495;51.210;2.934;2022-11-03T10:39:43;19.10;99.90
18733;DHT22;9495;51.210;2.934;2022-11-03T10:42:19;18.70;99.90
18733;DHT22;9495;51.210;2.934;2022-11-03T10:44:51;19.20;99.90
18733;DHT22;9495;51.210;2.934;2022-11-03T10:47:24;19.00;99.90
18733;DHT22;9495;51.210;2.934;2022-11-03T10:49:53;19.30;99.90
18733;DHT22;9495;51.210;2.934;2022-11-03T10:52:23;19.30;99.90
18733;DHT22;9495;51.210;2.934;2022-11-03T10:54:53;19.50;99.90
18733;DHT22;9495;51.210;2.934;2022-11-03T10:57:23;19.50;99.90
18733;DHT22;9495;51.210;2.934;2022-11-03T10:59:53;19.00;99.90
18733;DHT22;9495;51.210;2.934;2022-11-03T11:02:24;19.30;99.90
18733;DHT22;9495;51.210;2.934;2022-11-03T11:04:58;19.50;99.90
18733;DHT22;9495;51.210;2.934;2022-11-03T11:07:32;19.30;99.90
18733;DHT22;9495;51.210;2.934;2022-11-03T11:10:06;19.50;99.90
18733;DHT22;9495;51.210;2.934;2022-11-03T11:12:35;19.20;99.90
18733;DHT22;9495;51.210;2.934;2022-11-03T11:15:37;18.90;99.90
18733;DHT22;9495;51.210;2.934;2022-11-03T11:18:08;19.20;99.90
18733;DHT22;9495;51.210;2.934;2022-11-03T11:20:37;18.70;99.90
18733;DHT22;9495;51.210;2.934;2022-11-03T11:26:33;19.30;99.90
18733;DHT22;9495;51.210;2.934;2022-11-03T11:39:03;18.60;99.90
18733;DHT22;9495;51.210;2.934;2022-11-03T11:42:09;19.10;99.90
18733;DHT22;9495;51.210;2.934;2022-11-03T11:44:52;19.10;99.90
18733;DHT22;9495;51.210;2.934;2022-11-03T11:50:38;19.20;99.90
18733;DHT22;9495;51.210;2.934;2022-11-03T11:53:13;19.20;99.90
18733;DHT22;9495;51.210;2.934;2022-11-03T11:55:48;19.30;99.90
18733;DHT22;9495;51.210;2.934;2022-11-03T11:58:21;19.30;99.90
18733;DHT22;9495;51.210;2.934;2022-11-03T12:00:58;19.40;99.90
18733;DHT22;9495;51.210;2.934;2022-11-03T12:03:32;19.50;99.90
18733;DHT22;9495;51.210;2.934;2022-11-03T12:06:03;19.20;99.90
18733;DHT22;9495;51.210;2.934;2022-11-03T12:08:31;19.30;99.90
18733;DHT22;9495;51.210;2.934;2022-11-03T12:11:01;19.40;99.90
18733;DHT22;9495;51.210;2.934;2022-11-03T12:13:41;19.40;99.90
18733;DHT22;9495;51.210;2.934;2022-11-03T12:16:28;19.50;99.90
18733;DHT22;9495;51.210;2.934;2022-11-03T12:19:07;19.30;99.90
18733;DHT22;9495;51.210;2.934;2022-11-03T12:21:47;19.40;99.90
18733;DHT22;9495;51.210;2.934;2022-11-03T12:24:25;19.30;99.90
18733;DHT22;9495;51.210;2.934;2022-11-03T12:26:54;19.10;99.90
18733;DHT22;9495;51.210;2.934;2022-11-03T12:29:22;19.40;99.90
18733;DHT22;9495;51.210;2.934;2022-11-03T12:31:51;19.10;99.90
18733;DHT22;9495;51.210;2.934;2022-11-03T12:34:19;19.30;99.90
18733;DHT22;9495;51.210;2.934;2022-11-03T12:36:49;19.10;99.90
18733;DHT22;9495;51.210;2.934;2022-11-03T12:39:21;18.90;99.90
18733;DHT22;9495;51.210;2.934;2022-11-03T12:41:50;19.20;99.90
18733;DHT22;9495;51.210;2.934;2022-11-03T12:44:18;19.10;99.90
18733;DHT22;9495;51.210;2.934;2022-11-03T12:46:47;19.10;99.90
18733;DHT22;9495;51.210;2.934;2022-11-03T12:49:15;19.10;99.90
18733;DHT22;9495;51.210;2.934;2022-11-03T12:51:44;19.10;99.90
18733;DHT22;9495;51.210;2.934;2022-11-03T12:54:13;18.70;99.90
18733;DHT22;9495;51.210;2.934;2022-11-03T12:56:42;18.90;99.90
18733;DHT22;9495;51.210;2.934;2022-11-03T12:59:10;19.10;99.90
18733;DHT22;9495;51.210;2.934;2022-11-03T13:01:39;19.00;99.90
18733;DHT22;9495;51.210;2.934;2022-11-03T13:04:07;19.00;99.90
18733;DHT22;9495;51.210;2.934;2022-11-03T13:06:36;19.00;99.90
18733;DHT22;9495;51.210;2.934;2022-11-03T13:09:04;19.30;99.90
18733;DHT22;9495;51.210;2.934;2022-11-03T13:11:33;18.80;99.90
18733;DHT22;9495;51.210;2.934;2022-11-03T13:14:20;18.70;99.90
18733;DHT22;9495;51.210;2.934;2022-11-03T13:16:48;18.70;99.90
18733;DHT22;9495;51.210;2.934;2022-11-03T13:19:16;18.60;99.90
18733;DHT22;9495;51.210;2.934;2022-11-03T13:21:44;18.60;99.90
18733;DHT22;9495;51.210;2.934;2022-11-03T13:24:12;18.80;99.90
18733;DHT22;9495;51.210;2.934;2022-11-03T13:26:42;18.50;99.90
18733;DHT22;9495;51.210;2.934;2022-11-03T13:29:11;18.40;99.90
18733;DHT22;9495;51.210;2.934;2022-11-03T13:31:39;18.50;99.90
18733;DHT22;9495;51.210;2.934;2022-11-03T13:34:08;18.20;99.90
18733;DHT22;9495;51.210;2.934;2022-11-03T13:36:36;17.80;99.90
18733;DHT22;9495;51.210;2.934;2022-11-03T13:39:04;18.10;99.90
18733;DHT22;9495;51.210;2.934;2022-11-03T13:41:32;18.50;99.90
18733;DHT22;9495;51.210;2.934;2022-11-03T13:44:02;18.30;99.90
18733;DHT22;9495;51.210;2.934;2022-11-03T13:46:30;18.60;99.90
18733;DHT22;9495;51.210;2.934;2022-11-03T13:48:58;18.40;99.90
18733;DHT22;9495;51.210;2.934;2022-11-03T13:51:47;18.50;99.90
18733;DHT22;9495;51.210;2.934;2022-11-03T13:54:15;18.40;99.90
18733;DHT22;9495;51.210;2.934;2022-11-03T13:57:03;18.10;99.90
18733;DHT22;9495;51.210;2.934;2022-11-03T13:59:53;18.30;99.90
18733;DHT22;9495;51.210;2.934;2022-11-03T14:02:24;18.40;99.90
18733;DHT22;9495;51.210;2.934;2022-11-03T14:05:14;18.40;99.90
18733;DHT22;9495;51.210;2.934;2022-11-03T14:07:43;18.60;99.90
18733;DHT22;9495;51.210;2.934;2022-11-03T14:10:11;18.70;99.90
18733;DHT22;9495;51.210;2.934;2022-11-03T14:12:39;18.70;99.90
18733;DHT22;9495;51.210;2.934;2022-11-03T14:15:10;18.40;99.90
18733;DHT22;9495;51.210;2.934;2022-11-03T14:17:38;18.70;99.90
18733;DHT22;9495;51.210;2.934;2022-11-03T14:20:09;18.70;99.90
18733;DHT22;9495;51.210;2.934;2022-11-03T14:22:39;18.60;99.90
18733;DHT22;9495;51.210;2.934;2022-11-03T14:25:08;18.30;99.90
18733;DHT22;9495;51.210;2.934;2022-11-03T14:27:36;18.40;99.90
18733;DHT22;9495;51.210;2.934;2022-11-03T14:30:06;18.10;99.90
18733;DHT22;9495;51.210;2.934;2022-11-03T14:32:35;18.40;99.90
18733;DHT22;9495;51.210;2.934;2022-11-03T14:35:04;18.30;99.90
18733;DHT22;9495;51.210;2.934;2022-11-03T14:37:33;18.30;99.90
18733;DHT22;9495;51.210;2.934;2022-11-03T14:40:01;18.40;99.90
18733;DHT22;9495;51.210;2.934;2022-11-03T14:42:30;18.50;99.90
18733;DHT22;9495;51.210;2.934;2022-11-03T14:44:57;17.60;99.90
18733;DHT22;9495;51.210;2.934;2022-11-03T14:47:26;17.50;99.90
18733;DHT22;9495;51.210;2.934;2022-11-03T14:49:58;17.20;99.90
18733;DHT22;9495;51.210;2.934;2022-11-03T14:52:26;17.40;99.90
18733;DHT22;9495;51.210;2.934;2022-11-03T14:54:55;17.90;99.90
18733;DHT22;9495;51.210;2.934;2022-11-03T14:57:23;17.30;99.90
18733;DHT22;9495;51.210;2.934;2022-11-03T14:59:51;17.70;99.90
18733;DHT22;9495;51.210;2.934;2022-11-03T15:02:20;18.20;99.90
18733;DHT22;9495;51.210;2.934;2022-11-03T15:04:49;18.00;99.90
18733;DHT22;9495;51.210;2.934;2022-11-03T15:07:18;18.40;99.90
18733;DHT22;9495;51.210;2.934;2022-11-03T15:09:46;18.50;99.90
18733;DHT22;9495;51.210;2.934;2022-11-03T15:12:15;18.70;99.90
18733;DHT22;9495;51.210;2.934;2022-11-03T15:14:43;18.50;99.90
18733;DHT22;9495;51.210;2.934;2022-11-03T15:17:11;18.90;99.90
18733;DHT22;9495;51.210;2.934;2022-11-03T15:19:39;18.40;99.90
18733;DHT22;9495;51.210;2.934;2022-11-03T15:22:08;18.20;99.90
18733;DHT22;9495;51.210;2.934;2022-11-03T15:24:38;18.40;99.90
18733;DHT22;9495;51.210;2.934;2022-11-03T15:27:26;18.70;99.90
18733;DHT22;9495;51.210;2.934;2022-11-03T15:29:55;18.20;99.90
18733;DHT22;9495;51.210;2.934;2022-11-03T15:32:25;17.60;99.90
18733;DHT22;9495;51.210;2.934;2022-11-03T15:34:58;17.60;99.90
18733;DHT22;9495;51.210;2.934;2022-11-03T15:37:27;17.80;99.90
18733;DHT22;9495;51.210;2.934;2022-11-03T15:39:57;18.00;99.90
18733;DHT22;9495;51.210;2.934;2022-11-03T15:42:25;18.50;99.90
18733;DHT22;9495;51.210;2.934;2022-11-03T15:44:54;18.30;99.90
18733;DHT22;9495;51.210;2.934;2022-11-03T15:47:22;18.70;99.90
18733;DHT22;9495;51.210;2.934;2022-11-03T15:49:50;18.80;99.90
18733;DHT22;9495;51.210;2.934;2022-11-03T15:52:18;18.70;99.90
18733;DHT22;9495;51.210;2.934;2022-11-03T15:54:47;19.00;99.90
18733;DHT22;9495;51.210;2.934;2022-11-03T15:57:16;18.80;99.90
18733;DHT22;9495;51.210;2.934;2022-11-03T15:59:45;18.80;99.90
18733;DHT22;9495;51.210;2.934;2022-11-03T16:02:13;18.80;99.90
18733;DHT22;9495;51.210;2.934;2022-11-03T16:05:01;19.00;99.90
18733;DHT22;9495;51.210;2.934;2022-11-03T16:07:30;18.70;99.90
18733;DHT22;9495;51.210;2.934;2022-11-03T16:09:58;18.30;99.90
18733;DHT22;9495;51.210;2.934;2022-11-03T16:12:28;18.40;99.90
18733;DHT22;9495;51.210;2.934;2022-11-03T16:14:56;18.90;99.90
18733;DHT22;9495;51.210;2.934;2022-11-03T16:17:25;18.70;99.90
18733;DHT22;9495;51.210;2.934;2022-11-03T16:19:53;18.60;99.90
18733;DHT22;9495;51.210;2.934;2022-11-03T16:22:21;18.00;99.90
18733;DHT22;9495;51.210;2.934;2022-11-03T16:24:50;18.00;99.90
18733;DHT22;9495;51.210;2.934;2022-11-03T16:27:18;18.50;99.90
18733;DHT22;9495;51.210;2.934;2022-11-03T16:29:47;18.70;99.90